createdAt,value
2019-06-01T00:00:15.858Z,2.50
2019-06-01T00:02:54.566Z,2.35
2019-06-01T00:05:20.058Z,2.50
2019-06-01T00:07:51.119Z,2.30
2019-06-01T00:10:21.653Z,2.47
2019-06-01T00:12:52.133Z,2.40
2019-06-01T00:15:22.626Z,2.25
2019-06-01T00:17:53.084Z,2.37
2019-06-01T00:20:23.661Z,2.10
2019-06-01T00:22:55.278Z,2.37
2019-06-01T00:25:25.731Z,2.37
2019-06-01T00:27:56.107Z,2.25
2019-06-01T00:30:27.607Z,2.40
2019-06-01T00:32:59.236Z,2.45
2019-06-01T00:35:29.738Z,2.30
2019-06-01T00:38:00.101Z,2.37
2019-06-01T00:40:30.623Z,2.37
2019-06-01T00:43:02.026Z,2.27
2019-06-01T00:45:32.469Z,2.50
2019-06-01T00:48:02.842Z,2.72
2019-06-01T00:50:33.232Z,2.70
2019-06-01T00:53:03.775Z,2.40
2019-06-01T00:55:34.319Z,2.27
2019-06-01T00:58:05.810Z,2.35
2019-06-01T01:00:43.741Z,2.40
2019-06-01T01:03:08.417Z,2.80
2019-06-01T01:05:39.948Z,2.20
2019-06-01T01:08:10.502Z,2.52
2019-06-01T01:10:41.303Z,2.60
2019-06-01T01:13:16.787Z,2.60
2019-06-01T01:15:47.307Z,2.40
2019-06-01T01:18:17.772Z,2.30
2019-06-01T01:20:48.308Z,2.17
2019-06-01T01:23:18.870Z,2.47
2019-06-01T01:25:50.495Z,2.33
2019-06-01T01:28:23.878Z,6.37
2019-06-01T01:31:06.904Z,3.62
2019-06-01T01:33:25.372Z,2.20
2019-06-01T01:35:56.060Z,2.20
2019-06-01T01:38:26.614Z,2.20
2019-06-01T01:40:59.267Z,2.33
2019-06-01T01:43:29.476Z,2.52
2019-06-01T01:46:00.030Z,2.40
2019-06-01T01:48:30.564Z,1.98
2019-06-01T01:51:01.072Z,2.30
2019-06-01T01:53:33.546Z,2.90
2019-06-01T01:56:03.978Z,2.30
2019-06-01T01:58:34.420Z,1.87
2019-06-01T02:01:21.293Z,2.30
2019-06-01T02:03:37.151Z,2.42
2019-06-01T02:06:07.674Z,2.42
2019-06-01T02:08:38.163Z,2.50
2019-06-01T02:11:08.676Z,2.60
2019-06-01T02:13:39.262Z,2.42
2019-06-01T02:16:09.672Z,2.15
2019-06-01T02:18:40.638Z,2.60
2019-06-01T02:21:11.444Z,2.30
2019-06-01T02:23:42.046Z,2.50
2019-06-01T02:26:12.523Z,2.35
2019-06-01T02:28:44.990Z,1.87
2019-06-01T02:31:15.379Z,2.27
2019-06-01T02:33:45.829Z,2.30
2019-06-01T02:36:16.261Z,2.10
2019-06-01T02:38:46.741Z,2.30
2019-06-01T02:41:17.131Z,2.30
2019-06-01T02:43:47.836Z,2.12
2019-06-01T02:46:18.265Z,2.35
2019-06-01T02:48:48.777Z,2.30
2019-06-01T02:51:19.269Z,2.10
2019-06-01T02:53:49.634Z,2.30
2019-06-01T02:56:20.162Z,2.25
2019-06-01T02:58:50.622Z,2.20
2019-06-01T03:01:38.388Z,2.10
2019-06-01T03:04:11.445Z,1.90
2019-06-01T03:06:43.495Z,2.27
2019-06-01T03:09:14.457Z,2.40
2019-06-01T03:11:46.067Z,1.87
2019-06-01T03:14:20.415Z,3.02
2019-06-01T03:16:52.523Z,2.13
2019-06-01T03:19:25.785Z,2.77
2019-06-01T03:22:00.185Z,2.25
2019-06-01T03:24:35.893Z,2.33
2019-06-01T03:27:06.556Z,1.98
2019-06-01T03:29:41.640Z,2.08
2019-06-01T03:32:33.173Z,2.00
2019-06-01T03:34:44.430Z,2.33
2019-06-01T03:37:14.956Z,1.80
2019-06-01T03:39:45.495Z,2.30
2019-06-01T03:42:16.256Z,2.30
2019-06-01T03:44:46.692Z,2.30
2019-06-01T03:47:17.178Z,2.60
2019-06-01T03:49:47.580Z,2.50
2019-06-01T03:52:18.075Z,2.50
2019-06-01T03:54:48.743Z,2.12
2019-06-01T03:57:19.472Z,2.05
2019-06-01T03:59:50.011Z,2.30
2019-06-01T04:02:32.426Z,2.27
2019-06-01T04:04:52.511Z,2.40
2019-06-01T04:07:22.943Z,2.22
2019-06-01T04:09:53.449Z,2.20
2019-06-01T04:12:23.977Z,1.87
2019-06-01T04:14:54.522Z,2.20
2019-06-01T04:17:24.967Z,1.77
2019-06-01T04:19:55.438Z,2.20
2019-06-01T04:22:26.003Z,2.00
2019-06-01T04:24:56.460Z,1.92
2019-06-01T04:27:26.975Z,2.02
2019-06-01T04:29:57.394Z,2.10
2019-06-01T04:32:28.886Z,1.87
2019-06-01T04:34:59.327Z,2.10
2019-06-01T04:37:29.857Z,2.00
2019-06-01T04:40:00.403Z,1.90
2019-06-01T04:42:30.723Z,2.10
2019-06-01T04:45:02.714Z,2.22
2019-06-01T04:47:34.891Z,2.10
2019-06-01T04:50:08.734Z,2.00
2019-06-01T04:52:40.206Z,2.40
2019-06-01T04:55:11.122Z,2.20
2019-06-01T04:57:41.766Z,2.00
2019-06-01T05:00:25.762Z,2.05
2019-06-01T05:02:46.074Z,1.80
2019-06-01T05:05:16.664Z,2.08
2019-06-01T05:07:48.145Z,2.00
2019-06-01T05:10:19.072Z,1.72
2019-06-01T05:12:50.613Z,1.80
2019-06-01T05:15:21.106Z,2.17
2019-06-01T05:17:51.982Z,1.80
2019-06-01T05:20:22.562Z,1.87
2019-06-01T05:22:52.999Z,1.80
2019-06-01T05:25:23.867Z,1.87
2019-06-01T05:27:54.368Z,2.05
2019-06-01T05:30:24.853Z,2.10
2019-06-01T05:32:55.356Z,1.70
2019-06-01T05:35:27.022Z,1.90
2019-06-01T05:37:57.655Z,1.70
2019-06-01T05:40:28.172Z,1.60
2019-06-01T05:42:59.653Z,1.32
2019-06-01T05:45:31.165Z,1.57
2019-06-01T05:48:01.578Z,1.60
2019-06-01T05:50:32.063Z,1.87
2019-06-01T05:53:02.656Z,1.77
2019-06-01T05:55:33.194Z,1.85
2019-06-01T05:58:03.671Z,1.75
2019-06-01T06:00:39.638Z,1.62
2019-06-01T06:03:14.376Z,1.62
2019-06-01T06:05:42.768Z,1.72
2019-06-01T06:08:14.427Z,1.50
2019-06-01T06:10:45.812Z,1.50
2019-06-01T06:13:17.491Z,1.65
2019-06-01T06:15:48.010Z,1.40
2019-06-01T06:18:19.764Z,1.77
2019-06-01T06:20:50.375Z,1.82
2019-06-01T06:23:22.735Z,1.85
2019-06-01T06:25:53.473Z,1.80
2019-06-01T06:28:26.597Z,1.70
2019-06-01T06:30:56.012Z,1.50
2019-06-01T06:33:27.505Z,1.35
2019-06-01T06:35:58.125Z,1.30
2019-06-01T06:38:28.515Z,1.50
2019-06-01T06:40:59.103Z,1.75
2019-06-01T06:43:33.101Z,1.90
2019-06-01T06:46:02.774Z,2.02
2019-06-01T06:48:33.299Z,3.35
2019-06-01T06:51:03.754Z,3.33
2019-06-01T06:53:35.520Z,4.12
2019-06-01T06:56:06.285Z,2.25
2019-06-01T06:58:36.590Z,1.62
2019-06-01T07:01:07.046Z,1.57
2019-06-01T07:03:37.509Z,1.72
2019-06-01T07:06:07.957Z,2.67
2019-06-01T07:08:38.493Z,1.65
2019-06-01T07:11:11.969Z,1.27
2019-06-01T07:13:42.118Z,1.80
2019-06-01T07:16:13.566Z,2.45
2019-06-01T07:18:43.949Z,1.32
2019-06-01T07:21:15.203Z,1.27
2019-06-01T07:23:45.716Z,1.40
2019-06-01T07:26:16.056Z,1.22
2019-06-01T07:28:46.538Z,1.42
2019-06-01T07:31:16.949Z,1.40
2019-06-01T07:33:47.275Z,1.22
2019-06-01T07:36:17.786Z,1.92
2019-06-01T07:38:48.356Z,1.25
2019-06-01T07:41:18.636Z,1.40
2019-06-01T07:43:49.071Z,1.10
2019-06-01T07:46:20.802Z,2.52
2019-06-01T07:48:52.022Z,5.33
2019-06-01T07:51:23.234Z,2.83
2019-06-01T07:53:54.907Z,2.35
2019-06-01T07:56:26.441Z,1.70
2019-06-01T07:58:57.138Z,2.10
2019-06-01T08:01:29.564Z,1.67
2019-06-01T08:04:00.919Z,1.27
2019-06-01T08:06:32.754Z,1.20
2019-06-01T08:09:05.664Z,1.17
2019-06-01T08:11:36.176Z,1.42
2019-06-01T08:14:06.657Z,1.30
2019-06-01T08:16:37.033Z,1.70
2019-06-01T08:19:07.433Z,1.32
2019-06-01T08:21:38.043Z,1.40
2019-06-01T08:24:08.471Z,1.50
2019-06-01T08:26:39.916Z,1.35
2019-06-01T08:29:10.445Z,1.40
2019-06-01T08:31:40.925Z,1.90
2019-06-01T08:34:11.436Z,1.70
2019-06-01T08:36:41.925Z,1.60
2019-06-01T08:39:12.474Z,1.57
2019-06-01T08:41:42.921Z,1.55
2019-06-01T08:44:13.405Z,1.20
2019-06-01T08:46:43.788Z,1.30
2019-06-01T08:49:14.218Z,1.60
2019-06-01T08:51:44.539Z,1.47
2019-06-01T08:54:14.968Z,2.72
2019-06-01T08:56:45.340Z,1.40
2019-06-01T08:59:16.846Z,1.30
2019-06-01T09:01:47.565Z,1.70
2019-06-01T09:04:17.875Z,1.32
2019-06-01T09:06:48.407Z,1.10
2019-06-01T09:09:18.786Z,1.25
2019-06-01T09:11:49.236Z,1.25
2019-06-01T09:14:19.687Z,1.22
2019-06-01T09:16:50.023Z,1.35
2019-06-01T09:19:20.392Z,1.20
2019-06-01T09:21:50.768Z,1.20
2019-06-01T09:24:21.237Z,1.10
2019-06-01T09:26:51.624Z,1.20
2019-06-01T09:29:22.053Z,1.10
2019-06-01T09:31:52.423Z,1.05
2019-06-01T09:34:22.898Z,1.10
2019-06-01T09:36:55.472Z,1.10
2019-06-01T09:39:26.592Z,1.25
2019-06-01T09:41:57.175Z,1.40
2019-06-01T09:44:28.841Z,1.10
2019-06-01T09:46:59.368Z,1.00
2019-06-01T09:49:32.622Z,1.20
2019-06-01T09:52:02.772Z,1.10
2019-06-01T09:54:34.718Z,1.10
2019-06-01T09:57:05.904Z,1.10
2019-06-01T09:59:36.385Z,1.20
2019-06-01T10:02:06.863Z,1.37
2019-06-01T10:04:37.172Z,1.90
2019-06-01T10:07:07.513Z,1.65
2019-06-01T10:09:37.977Z,1.55
2019-06-01T10:12:08.350Z,1.50
2019-06-01T10:14:39.276Z,1.67
2019-06-01T10:17:10.184Z,1.57
2019-06-01T10:19:40.476Z,1.27
2019-06-01T10:22:10.853Z,1.20
2019-06-01T10:24:41.449Z,1.37
2019-06-01T10:27:11.794Z,1.35
2019-06-01T10:29:43.094Z,1.35
2019-06-01T10:32:13.871Z,1.40
2019-06-01T10:34:44.279Z,1.40
2019-06-01T10:37:14.750Z,1.22
2019-06-01T10:39:45.199Z,1.30
2019-06-01T10:42:15.529Z,1.30
2019-06-01T10:44:46.233Z,1.40
2019-06-01T10:47:16.608Z,1.40
2019-06-01T10:49:47.046Z,1.65
2019-06-01T10:52:18.389Z,1.50
2019-06-01T10:54:48.754Z,1.40
2019-06-01T10:57:19.217Z,1.87
2019-06-01T10:59:49.589Z,1.50
2019-06-01T11:02:19.951Z,1.80
2019-06-01T11:04:50.247Z,1.50
2019-06-01T11:07:20.523Z,1.72
2019-06-01T11:09:50.900Z,1.92
2019-06-01T11:12:21.304Z,1.70
2019-06-01T11:14:51.690Z,1.35
2019-06-01T11:17:22.101Z,1.32
2019-06-01T11:19:52.474Z,1.35
2019-06-01T11:22:22.908Z,1.60
2019-06-01T11:24:53.305Z,1.90
2019-06-01T11:27:24.486Z,1.55
2019-06-01T11:29:54.795Z,1.60
2019-06-01T11:32:25.158Z,1.30
2019-06-01T11:34:55.507Z,1.55
2019-06-01T11:37:26.917Z,1.45
2019-06-01T11:39:57.349Z,1.80
2019-06-01T11:42:27.863Z,1.50
2019-06-01T11:44:59.282Z,1.60
2019-06-01T11:47:29.719Z,1.52
2019-06-01T11:49:59.998Z,1.60
2019-06-01T11:52:30.430Z,1.60
2019-06-01T11:55:00.716Z,1.40
2019-06-01T11:57:31.104Z,1.52
2019-06-01T12:00:01.406Z,1.72
2019-06-01T12:02:31.939Z,1.47
2019-06-01T12:05:03.362Z,2.37
2019-06-01T12:07:33.818Z,1.50
2019-06-01T12:10:04.501Z,1.27
2019-06-01T12:12:35.970Z,1.40
2019-06-01T12:15:06.827Z,1.52
2019-06-01T12:17:38.596Z,1.40
2019-06-01T12:20:09.428Z,1.52
2019-06-01T12:22:40.841Z,1.60
2019-06-01T12:25:11.724Z,1.40
2019-06-01T12:27:42.076Z,1.70
2019-06-01T12:30:12.827Z,1.32
2019-06-01T12:32:44.054Z,1.50
2019-06-01T12:35:14.786Z,1.47
2019-06-01T12:38:02.998Z,1.42
2019-06-01T12:40:17.779Z,1.50
2019-06-01T12:42:48.144Z,1.65
2019-06-01T12:45:23.319Z,1.80
2019-06-01T12:47:58.167Z,1.60
2019-06-01T12:50:26.080Z,1.52
2019-06-01T12:52:56.505Z,1.50
2019-06-01T12:55:27.037Z,1.65
2019-06-01T12:57:57.341Z,1.65
2019-06-01T13:00:27.898Z,1.62
2019-06-01T13:03:06.918Z,1.80
2019-06-01T13:05:30.312Z,1.80
2019-06-01T13:08:02.931Z,1.50
2019-06-01T13:10:32.914Z,1.45
2019-06-01T13:13:03.211Z,1.52
2019-06-01T13:15:33.644Z,1.50
2019-06-01T13:18:04.006Z,1.52
2019-06-01T13:20:35.455Z,1.70
2019-06-01T13:23:05.819Z,1.60
2019-06-01T13:25:36.179Z,1.70
2019-06-01T13:28:06.625Z,1.40
2019-06-01T13:30:37.047Z,1.50
2019-06-01T13:33:07.337Z,1.50
2019-06-01T13:35:37.720Z,1.40
2019-06-01T13:38:12.164Z,1.60
2019-06-01T13:40:40.296Z,1.45
2019-06-01T13:43:10.775Z,1.50
2019-06-01T13:45:41.203Z,1.40
2019-06-01T13:48:11.829Z,1.70
2019-06-01T13:50:43.454Z,1.60
2019-06-01T13:53:13.952Z,1.55
2019-06-01T13:55:44.316Z,1.70
2019-06-01T13:58:14.644Z,1.77
2019-06-01T14:00:46.224Z,1.70
2019-06-01T14:03:16.742Z,1.55
2019-06-01T14:05:48.840Z,1.40
2019-06-01T14:08:28.628Z,1.57
2019-06-01T14:10:51.496Z,1.60
2019-06-01T14:13:21.998Z,1.72
2019-06-01T14:15:53.640Z,1.80
2019-06-01T14:18:24.978Z,2.00
2019-06-01T14:20:55.866Z,1.72
2019-06-01T14:23:26.262Z,1.65
2019-06-01T14:25:56.529Z,1.70
2019-06-01T14:28:26.945Z,1.60
2019-06-01T14:30:57.275Z,1.47
2019-06-01T14:33:27.655Z,1.32
2019-06-01T14:35:57.917Z,1.50
2019-06-01T14:38:45.693Z,1.40
2019-06-01T14:41:00.357Z,1.50
2019-06-01T14:43:30.775Z,1.72
2019-06-01T14:46:01.295Z,1.67
2019-06-01T14:48:32.726Z,1.60
2019-06-01T14:51:03.105Z,1.60
2019-06-01T14:53:33.488Z,1.77
2019-06-01T14:56:03.952Z,1.50
2019-06-01T14:58:34.411Z,1.62
2019-06-01T15:01:05.915Z,1.65
2019-06-01T15:03:36.435Z,1.82
2019-06-01T15:06:06.768Z,1.77
2019-06-01T15:08:37.205Z,1.77
2019-06-01T15:11:07.652Z,1.70
2019-06-01T15:13:39.080Z,1.70
2019-06-01T15:16:09.445Z,1.50
2019-06-01T15:18:39.877Z,1.52
2019-06-01T15:21:10.357Z,1.47
2019-06-01T15:23:41.174Z,1.47
2019-06-01T15:26:11.511Z,1.87
2019-06-01T15:28:42.101Z,1.50
2019-06-01T15:31:12.498Z,1.50
2019-06-01T15:33:42.793Z,1.37
2019-06-01T15:36:13.136Z,1.77
2019-06-01T15:38:43.600Z,1.70
2019-06-01T15:41:14.069Z,1.30
2019-06-01T15:43:44.446Z,1.35
2019-06-01T15:46:14.885Z,1.50
2019-06-01T15:48:45.364Z,1.40
2019-06-01T15:51:15.712Z,1.50
2019-06-01T15:53:46.041Z,1.50
2019-06-01T15:56:16.340Z,1.40
2019-06-01T15:58:53.047Z,1.50
2019-06-01T16:01:18.828Z,1.70
2019-06-01T16:03:49.312Z,1.75
2019-06-01T16:06:20.016Z,1.50
2019-06-01T16:08:50.484Z,1.57
2019-06-01T16:11:21.869Z,1.80
2019-06-01T16:13:53.582Z,1.50
2019-06-01T16:16:24.055Z,1.60
2019-06-01T16:18:59.827Z,1.35
2019-06-01T16:21:27.344Z,1.57
2019-06-01T16:23:58.327Z,1.40
2019-06-01T16:26:28.746Z,1.55
2019-06-01T16:29:00.482Z,1.50
2019-06-01T16:31:30.944Z,1.40
2019-06-01T16:34:02.870Z,1.52
2019-06-01T16:36:34.349Z,1.62
2019-06-01T16:39:08.109Z,1.67
2019-06-01T16:41:39.680Z,1.55
2019-06-01T16:44:10.126Z,1.35
2019-06-01T16:46:40.620Z,1.60
2019-06-01T16:49:11.064Z,1.55
2019-06-01T16:51:56.571Z,1.70
2019-06-01T16:54:27.404Z,1.50
2019-06-01T16:56:58.894Z,1.62
2019-06-01T16:59:29.180Z,1.70
2019-06-01T17:02:00.836Z,1.40
2019-06-01T17:04:31.418Z,1.62
2019-06-01T17:07:05.069Z,1.52
2019-06-01T17:09:33.963Z,2.05
2019-06-01T17:12:05.251Z,1.60
2019-06-01T17:14:35.931Z,1.80
2019-06-01T17:17:07.475Z,1.67
2019-06-01T17:19:38.014Z,1.60
2019-06-01T17:22:08.466Z,1.70
2019-06-01T17:24:38.896Z,1.80
2019-06-01T17:27:09.400Z,1.70
2019-06-01T17:29:39.778Z,2.08
2019-06-01T17:32:23.112Z,1.98
2019-06-01T17:34:42.497Z,1.90
2019-06-01T17:37:13.076Z,2.02
2019-06-01T17:39:43.593Z,2.08
2019-06-01T17:42:13.956Z,1.87
2019-06-01T17:44:44.545Z,2.47
2019-06-01T17:47:15.039Z,2.05
2019-06-01T17:49:45.639Z,2.27
2019-06-01T17:52:15.993Z,1.80
2019-06-01T17:54:46.323Z,1.80
2019-06-01T17:57:16.687Z,2.10
2019-06-01T17:59:47.067Z,2.42
2019-06-01T18:02:17.712Z,2.12
2019-06-01T18:04:48.166Z,2.72
2019-06-01T18:07:18.565Z,2.50
2019-06-01T18:09:49.058Z,2.47
2019-06-01T18:12:19.516Z,2.22
2019-06-01T18:14:49.897Z,2.10
2019-06-01T18:17:20.411Z,2.00
2019-06-01T18:19:50.889Z,1.95
2019-06-01T18:22:22.354Z,1.98
2019-06-01T18:24:52.737Z,3.02
2019-06-01T18:27:23.093Z,3.60
2019-06-01T18:29:53.565Z,4.20
2019-06-01T18:32:23.976Z,4.22
2019-06-01T18:34:54.425Z,2.30
2019-06-01T18:37:24.901Z,3.10
2019-06-01T18:39:55.351Z,2.25
2019-06-01T18:42:29.068Z,3.12
2019-06-01T18:44:59.590Z,2.50
2019-06-01T18:47:32.522Z,2.40
2019-06-01T18:50:03.021Z,2.65
2019-06-01T18:52:34.733Z,2.30
2019-06-01T18:55:06.430Z,2.95
2019-06-01T18:57:40.874Z,2.90
2019-06-01T19:00:15.286Z,2.23
2019-06-01T19:02:45.562Z,2.58
2019-06-01T19:05:15.997Z,2.20
2019-06-01T19:07:46.336Z,2.12
2019-06-01T19:10:16.977Z,2.40
2019-06-01T19:12:47.329Z,2.40
2019-06-01T19:15:27.861Z,2.40
2019-06-01T19:17:50.338Z,2.90
2019-06-01T19:20:20.781Z,3.30
2019-06-01T19:22:51.515Z,3.20
2019-06-01T19:25:22.201Z,3.00
2019-06-01T19:27:52.569Z,2.83
2019-06-01T19:30:37.230Z,3.02
2019-06-01T19:33:10.601Z,3.63
2019-06-01T19:35:41.601Z,3.90
2019-06-01T19:38:13.245Z,3.60
2019-06-01T19:40:43.970Z,3.12
2019-06-01T19:43:35.360Z,3.10
2019-06-01T19:46:05.837Z,3.45
2019-06-01T19:48:37.178Z,3.27
2019-06-01T19:51:08.654Z,3.67
2019-06-01T19:53:39.061Z,3.60
2019-06-01T19:56:10.819Z,4.03
2019-06-01T19:58:41.304Z,7.85
2019-06-01T20:01:12.267Z,5.58
2019-06-01T20:03:42.874Z,4.60
2019-06-01T20:06:13.228Z,4.28
2019-06-01T20:08:43.730Z,3.45
2019-06-01T20:11:15.098Z,4.05
2019-06-01T20:13:45.629Z,4.58
2019-06-01T20:16:16.715Z,4.12
2019-06-01T20:18:48.256Z,5.67
2019-06-01T20:21:19.442Z,5.22
2019-06-01T20:23:51.036Z,5.53
2019-06-01T20:26:22.751Z,4.70
2019-06-01T20:28:53.463Z,4.85
2019-06-01T20:31:24.055Z,5.08
2019-06-01T20:33:56.476Z,5.10
2019-06-01T20:36:26.722Z,6.33
2019-06-01T20:38:57.139Z,4.25
2019-06-01T20:41:27.489Z,4.25
2019-06-01T20:43:57.965Z,4.30
2019-06-01T20:46:28.245Z,4.40
2019-06-01T20:48:58.628Z,3.58
2019-06-01T20:51:28.988Z,3.98
2019-06-01T20:53:59.428Z,3.90
2019-06-01T20:56:29.872Z,4.03
2019-06-01T20:59:00.309Z,3.77
2019-06-01T21:01:30.766Z,3.85
2019-06-01T21:04:01.060Z,3.40
2019-06-01T21:06:32.602Z,3.72
2019-06-01T21:09:03.460Z,3.92
2019-06-01T21:11:35.705Z,4.00
2019-06-01T21:14:06.202Z,3.67
2019-06-01T21:16:36.626Z,4.47
2019-06-01T21:19:08.052Z,3.65
2019-06-01T21:21:39.405Z,3.72
2019-06-01T21:24:09.820Z,4.08
2019-06-01T21:26:40.543Z,3.90
2019-06-01T21:29:10.932Z,3.80
2019-06-01T21:31:41.374Z,3.75
2019-06-01T21:34:11.829Z,4.12
2019-06-01T21:36:42.294Z,10.75
2019-06-01T21:39:12.663Z,10.38
2019-06-01T21:41:43.181Z,10.93
2019-06-01T21:44:13.576Z,6.20
2019-06-01T21:46:45.091Z,4.35
2019-06-01T21:49:15.607Z,3.83
2019-06-01T21:51:46.014Z,4.20
2019-06-01T21:54:16.475Z,4.28
2019-06-01T21:56:46.841Z,4.05
2019-06-01T21:59:18.451Z,4.50
2019-06-01T22:01:49.124Z,4.00
2019-06-01T22:04:20.730Z,4.47
2019-06-01T22:06:51.461Z,4.00
2019-06-01T22:09:21.821Z,3.80
2019-06-01T22:11:52.653Z,3.92
2019-06-01T22:14:23.577Z,3.75
2019-06-01T22:16:54.105Z,4.03
2019-06-01T22:19:25.773Z,4.55
2019-06-01T22:21:56.442Z,4.20
2019-06-01T22:24:28.180Z,4.35
2019-06-01T22:26:58.804Z,4.22
2019-06-01T22:29:29.258Z,3.95
2019-06-01T22:31:59.756Z,3.90
2019-06-01T22:34:30.607Z,3.95
2019-06-01T22:37:00.965Z,3.58
2019-06-01T22:39:31.580Z,4.05
2019-06-01T22:42:02.023Z,3.58
2019-06-01T22:44:32.494Z,3.95
2019-06-01T22:47:02.897Z,3.95
2019-06-01T22:49:34.378Z,3.42
2019-06-01T22:52:04.831Z,3.45
2019-06-01T22:54:35.457Z,3.77
2019-06-01T22:57:06.006Z,3.77
2019-06-01T22:59:36.514Z,4.17
2019-06-01T23:02:06.957Z,3.58
2019-06-01T23:04:37.297Z,3.83
2019-06-01T23:07:08.738Z,3.50
2019-06-01T23:09:39.194Z,3.90
2019-06-01T23:12:09.601Z,3.20
2019-06-01T23:14:39.977Z,3.87
2019-06-01T23:17:10.464Z,3.60
2019-06-01T23:19:40.938Z,3.85
2019-06-01T23:22:12.373Z,3.70
2019-06-01T23:24:43.713Z,3.52
2019-06-01T23:27:15.221Z,3.40
2019-06-01T23:29:45.684Z,3.45
2019-06-01T23:32:16.128Z,3.20
2019-06-01T23:34:46.557Z,3.17
2019-06-01T23:37:17.418Z,3.30
2019-06-01T23:39:48.656Z,3.33
2019-06-01T23:42:20.680Z,3.45
2019-06-01T23:44:51.585Z,3.92
2019-06-01T23:47:23.031Z,3.70
2019-06-01T23:49:55.769Z,3.58
2019-06-01T23:52:27.541Z,3.70
2019-06-01T23:54:58.108Z,3.67
2019-06-01T23:57:30.058Z,3.67
